sensor_id;sensor_type;location;lat;lon;timestamp;pressure;altitude;pressure_sealevel;temperature;humidity
57791;BME280;43621;51.798;21.588;2023-05-20T00:00:35;100975.60;;;14.03;71.81
57791;BME280;43621;51.798;21.588;2023-05-20T00:04:50;100975.21;;;14.02;71.79
57791;BME280;43621;51.798;21.588;2023-05-20T00:08:52;100975.45;;;14.03;71.96
57791;BME280;43621;51.798;21.588;2023-05-20T00:12:53;100973.85;;;14.05;72.07
57791;BME280;43621;51.798;21.588;2023-05-20T00:16:54;100972.24;;;14.05;71.90
57791;BME280;43621;51.798;21.588;2023-05-20T00:20:55;100972.75;;;14.07;72.05
57791;BME280;43621;51.798;21.588;2023-05-20T00:24:56;100970.94;;;14.12;72.11
57791;BME280;43621;51.798;21.588;2023-05-20T00:28:57;100969.80;;;14.15;72.04
57791;BME280;43621;51.798;21.588;2023-05-20T00:32:59;100967.39;;;14.18;72.09
57791;BME280;43621;51.798;21.588;2023-05-20T00:37:00;100965.11;;;14.20;72.09
57791;BME280;43621;51.798;21.588;2023-05-20T00:41:01;100964.20;;;14.22;72.12
57791;BME280;43621;51.798;21.588;2023-05-20T00:45:03;100959.63;;;14.24;72.12
57791;BME280;43621;51.798;21.588;2023-05-20T00:49:04;100959.83;;;14.26;72.11
57791;BME280;43621;51.798;21.588;2023-05-20T00:53:05;100958.80;;;14.26;72.03
57791;BME280;43621;51.798;21.588;2023-05-20T00:57:07;100957.69;;;14.26;72.08
57791;BME280;43621;51.798;21.588;2023-05-20T01:01:09;100956.55;;;14.25;71.99
57791;BME280;43621;51.798;21.588;2023-05-20T01:05:10;100952.84;;;14.24;71.89
57791;BME280;43621;51.798;21.588;2023-05-20T01:09:12;100953.83;;;14.24;71.94
57791;BME280;43621;51.798;21.588;2023-05-20T01:13:16;100952.23;;;14.25;72.02
57791;BME280;43621;51.798;21.588;2023-05-20T01:17:20;100952.23;;;14.23;71.95
57791;BME280;43621;51.798;21.588;2023-05-20T01:21:22;100954.36;;;14.20;72.04
57791;BME280;43621;51.798;21.588;2023-05-20T01:25:23;100955.45;;;14.20;72.17
57791;BME280;43621;51.798;21.588;2023-05-20T01:29:26;100957.49;;;14.19;72.21
57791;BME280;43621;51.798;21.588;2023-05-20T01:33:28;100956.16;;;14.18;72.07
57791;BME280;43621;51.798;21.588;2023-05-20T01:37:30;100957.55;;;14.18;72.13
57791;BME280;43621;51.798;21.588;2023-05-20T01:41:32;100962.34;;;14.18;72.07
57791;BME280;43621;51.798;21.588;2023-05-20T01:45:35;100964.42;;;14.18;72.21
57791;BME280;43621;51.798;21.588;2023-05-20T01:49:38;100964.35;;;14.17;72.17
57791;BME280;43621;51.798;21.588;2023-05-20T01:53:39;100965.17;;;14.17;72.18
57791;BME280;43621;51.798;21.588;2023-05-20T01:57:40;100962.02;;;14.17;72.24
57791;BME280;43621;51.798;21.588;2023-05-20T02:01:41;100963.73;;;14.16;72.28
57791;BME280;43621;51.798;21.588;2023-05-20T02:05:42;100965.52;;;14.16;72.29
57791;BME280;43621;51.798;21.588;2023-05-20T02:09:44;100961.45;;;14.16;72.26
57791;BME280;43621;51.798;21.588;2023-05-20T02:13:46;100953.42;;;14.14;72.23
57791;BME280;43621;51.798;21.588;2023-05-20T02:17:47;100949.60;;;14.11;72.23
57791;BME280;43621;51.798;21.588;2023-05-20T02:21:49;100952.90;;;14.09;72.40
57791;BME280;43621;51.798;21.588;2023-05-20T02:25:50;100952.57;;;14.07;72.50
57791;BME280;43621;51.798;21.588;2023-05-20T02:29:51;100953.51;;;14.09;72.71
57791;BME280;43621;51.798;21.588;2023-05-20T02:33:53;100949.27;;;14.11;72.60
57791;BME280;43621;51.798;21.588;2023-05-20T02:37:54;100948.73;;;14.13;72.50
57791;BME280;43621;51.798;21.588;2023-05-20T02:41:55;100952.23;;;14.15;72.56
57791;BME280;43621;51.798;21.588;2023-05-20T02:45:56;100953.98;;;14.19;72.53
57791;BME280;43621;51.798;21.588;2023-05-20T02:49:58;100956.80;;;14.21;72.43
57791;BME280;43621;51.798;21.588;2023-05-20T02:53:59;100959.94;;;14.23;72.48
57791;BME280;43621;51.798;21.588;2023-05-20T02:58:01;100961.69;;;14.25;72.34
57791;BME280;43621;51.798;21.588;2023-05-20T03:02:02;100963.84;;;14.26;72.27
57791;BME280;43621;51.798;21.588;2023-05-20T03:06:04;100962.84;;;14.27;72.34
57791;BME280;43621;51.798;21.588;2023-05-20T03:10:06;100958.48;;;14.29;72.36
57791;BME280;43621;51.798;21.588;2023-05-20T03:14:09;100958.29;;;14.31;72.30
57791;BME280;43621;51.798;21.588;2023-05-20T03:18:10;100960.26;;;14.33;72.31
57791;BME280;43621;51.798;21.588;2023-05-20T03:22:12;100960.86;;;14.30;72.25
57791;BME280;43621;51.798;21.588;2023-05-20T03:26:13;100960.04;;;14.27;72.45
57791;BME280;43621;51.798;21.588;2023-05-20T03:30:15;100963.73;;;14.29;72.45
57791;BME280;43621;51.798;21.588;2023-05-20T03:34:16;100964.86;;;14.32;72.28
57791;BME280;43621;51.798;21.588;2023-05-20T03:38:17;100970.88;;;14.38;72.25
57791;BME280;43621;51.798;21.588;2023-05-20T03:42:18;100973.34;;;14.44;72.27
57791;BME280;43621;51.798;21.588;2023-05-20T03:46:19;100974.38;;;14.52;72.26
57791;BME280;43621;51.798;21.588;2023-05-20T03:50:21;100972.55;;;14.62;72.21
57791;BME280;43621;51.798;21.588;2023-05-20T03:54:22;100973.15;;;14.71;72.09
57791;BME280;43621;51.798;21.588;2023-05-20T03:58:23;100973.94;;;14.79;72.00
57791;BME280;43621;51.798;21.588;2023-05-20T04:02:26;100975.88;;;14.86;71.81
57791;BME280;43621;51.798;21.588;2023-05-20T04:06:27;100974.79;;;14.90;71.68
57791;BME280;43621;51.798;21.588;2023-05-20T04:10:28;100976.83;;;14.95;71.65
57791;BME280;43621;51.798;21.588;2023-05-20T04:14:32;100969.97;;;15.02;71.72
57791;BME280;43621;51.798;21.588;2023-05-20T04:18:36;100967.98;;;15.11;71.57
57791;BME280;43621;51.798;21.588;2023-05-20T04:22:38;100973.30;;;15.14;71.35
57791;BME280;43621;51.798;21.588;2023-05-20T04:26:40;100973.51;;;15.19;71.30
57791;BME280;43621;51.798;21.588;2023-05-20T04:30:41;100974.98;;;15.26;71.18
57791;BME280;43621;51.798;21.588;2023-05-20T04:34:45;100972.67;;;15.34;71.10
57791;BME280;43621;51.798;21.588;2023-05-20T04:38:46;100969.01;;;15.42;70.90
57791;BME280;43621;51.798;21.588;2023-05-20T04:42:48;100965.79;;;15.46;70.57
57791;BME280;43621;51.798;21.588;2023-05-20T04:46:49;100963.26;;;15.50;70.51
57791;BME280;43621;51.798;21.588;2023-05-20T04:50:51;100963.60;;;15.52;70.35
57791;BME280;43621;51.798;21.588;2023-05-20T04:54:54;100967.07;;;15.56;70.09
57791;BME280;43621;51.798;21.588;2023-05-20T04:58:58;100968.05;;;15.67;69.96
57791;BME280;43621;51.798;21.588;2023-05-20T05:02:59;100969.23;;;15.77;69.73
57791;BME280;43621;51.798;21.588;2023-05-20T05:07:01;100965.67;;;15.86;69.51
57791;BME280;43621;51.798;21.588;2023-05-20T05:11:04;100967.77;;;16.00;69.28
57791;BME280;43621;51.798;21.588;2023-05-20T05:15:07;100964.98;;;16.07;68.73
57791;BME280;43621;51.798;21.588;2023-05-20T05:19:08;100964.77;;;16.11;68.59
57791;BME280;43621;51.798;21.588;2023-05-20T05:23:09;100963.49;;;16.27;68.69
57791;BME280;43621;51.798;21.588;2023-05-20T05:27:11;100964.36;;;16.45;68.51
57791;BME280;43621;51.798;21.588;2023-05-20T05:31:12;100962.73;;;16.70;68.31
57791;BME280;43621;51.798;21.588;2023-05-20T05:35:13;100958.81;;;17.03;68.17
57791;BME280;43621;51.798;21.588;2023-05-20T05:39:14;100958.27;;;17.38;67.48
57791;BME280;43621;51.798;21.588;2023-05-20T05:43:15;100960.78;;;17.65;66.81
57791;BME280;43621;51.798;21.588;2023-05-20T05:47:17;100963.92;;;17.90;65.82
57791;BME280;43621;51.798;21.588;2023-05-20T05:51:18;100961.36;;;18.16;65.24
57791;BME280;43621;51.798;21.588;2023-05-20T05:55:19;100958.13;;;18.52;65.41
57791;BME280;43621;51.798;21.588;2023-05-20T05:59:21;100955.33;;;18.97;64.96
57791;BME280;43621;51.798;21.588;2023-05-20T06:03:23;100958.19;;;19.34;63.21
57791;BME280;43621;51.798;21.588;2023-05-20T06:07:24;100965.20;;;19.45;60.56
57791;BME280;43621;51.798;21.588;2023-05-20T06:11:26;100969.02;;;19.51;59.90
57791;BME280;43621;51.798;21.588;2023-05-20T06:15:27;100966.45;;;19.72;59.30
57791;BME280;43621;51.798;21.588;2023-05-20T06:19:28;100970.51;;;20.23;59.64
57791;BME280;43621;51.798;21.588;2023-05-20T06:23:30;100968.50;;;21.73;59.70
57791;BME280;43621;51.798;21.588;2023-05-20T06:27:31;100959.88;;;24.58;53.95
57791;BME280;43621;51.798;21.588;2023-05-20T06:31:32;100962.15;;;26.86;47.32
57791;BME280;43621;51.798;21.588;2023-05-20T06:35:33;100966.84;;;28.64;46.54
57791;BME280;43621;51.798;21.588;2023-05-20T06:39:34;100964.67;;;30.65;46.23
57791;BME280;43621;51.798;21.588;2023-05-20T06:43:36;100961.92;;;32.72;44.74
57791;BME280;43621;51.798;21.588;2023-05-20T06:47:37;100964.05;;;34.67;43.90
57791;BME280;43621;51.798;21.588;2023-05-20T06:51:38;100969.08;;;35.68;39.40
57791;BME280;43621;51.798;21.588;2023-05-20T06:55:39;100967.20;;;34.25;35.19
57791;BME280;43621;51.798;21.588;2023-05-20T06:59:40;100964.04;;;31.74;35.97
57791;BME280;43621;51.798;21.588;2023-05-20T07:03:42;100965.33;;;30.17;37.25
57791;BME280;43621;51.798;21.588;2023-05-20T07:07:44;100966.73;;;28.84;37.14
57791;BME280;43621;51.798;21.588;2023-05-20T07:11:45;100965.37;;;28.36;40.29
57791;BME280;43621;51.798;21.588;2023-05-20T07:15:46;100967.48;;;28.48;40.86
57791;BME280;43621;51.798;21.588;2023-05-20T07:19:48;100962.99;;;28.66;40.97
57791;BME280;43621;51.798;21.588;2023-05-20T07:23:49;100959.76;;;29.34;40.85
57791;BME280;43621;51.798;21.588;2023-05-20T07:27:50;100956.95;;;30.54;38.95
57791;BME280;43621;51.798;21.588;2023-05-20T07:31:51;100952.94;;;32.29;37.17
57791;BME280;43621;51.798;21.588;2023-05-20T07:35:52;100948.06;;;34.62;35.77
57791;BME280;43621;51.798;21.588;2023-05-20T07:39:54;100940.63;;;37.25;34.05
57791;BME280;43621;51.798;21.588;2023-05-20T07:43:55;100939.23;;;39.14;31.49
57791;BME280;43621;51.798;21.588;2023-05-20T07:47:56;100937.40;;;40.80;29.28
57791;BME280;43621;51.798;21.588;2023-05-20T07:51:58;100936.98;;;41.81;25.56
57791;BME280;43621;51.798;21.588;2023-05-20T07:55:59;100935.20;;;42.17;24.37
57791;BME280;43621;51.798;21.588;2023-05-20T08:00:00;100928.02;;;42.74;22.56
57791;BME280;43621;51.798;21.588;2023-05-20T08:04:02;100929.34;;;43.00;23.52
57791;BME280;43621;51.798;21.588;2023-05-20T08:08:04;100929.11;;;44.83;24.21
57791;BME280;43621;51.798;21.588;2023-05-20T08:12:06;100928.99;;;46.76;22.16
57791;BME280;43621;51.798;21.588;2023-05-20T08:16:07;100929.11;;;47.06;17.80
57791;BME280;43621;51.798;21.588;2023-05-20T08:20:09;100928.77;;;46.94;19.01
57791;BME280;43621;51.798;21.588;2023-05-20T08:24:12;100923.30;;;47.54;18.60
57791;BME280;43621;51.798;21.588;2023-05-20T08:28:13;100924.20;;;48.86;19.16
57791;BME280;43621;51.798;21.588;2023-05-20T08:32:14;100928.41;;;48.90;16.77
57791;BME280;43621;51.798;21.588;2023-05-20T08:36:16;100928.52;;;48.22;17.22
57791;BME280;43621;51.798;21.588;2023-05-20T08:40:20;100928.48;;;48.33;17.56
57791;BME280;43621;51.798;21.588;2023-05-20T08:44:22;100919.27;;;49.33;17.71
57791;BME280;43621;51.798;21.588;2023-05-20T08:48:25;100918.73;;;49.52;16.52
57791;BME280;43621;51.798;21.588;2023-05-20T08:52:28;100917.83;;;49.48;16.18
57791;BME280;43621;51.798;21.588;2023-05-20T08:56:31;100918.02;;;49.32;16.03
57791;BME280;43621;51.798;21.588;2023-05-20T09:00:33;100917.24;;;49.27;15.58
57791;BME280;43621;51.798;21.588;2023-05-20T09:04:36;100916.49;;;48.77;15.50
57791;BME280;43621;51.798;21.588;2023-05-20T09:08:37;100916.56;;;48.48;15.79
57791;BME280;43621;51.798;21.588;2023-05-20T09:12:39;100919.55;;;48.52;16.52
57791;BME280;43621;51.798;21.588;2023-05-20T09:16:40;100916.14;;;47.77;15.33
57791;BME280;43621;51.798;21.588;2023-05-20T09:20:41;100913.61;;;45.89;15.80
57791;BME280;43621;51.798;21.588;2023-05-20T09:24:42;100916.15;;;44.46;17.25
57791;BME280;43621;51.798;21.588;2023-05-20T09:28:43;100916.89;;;43.89;17.40
57791;BME280;43621;51.798;21.588;2023-05-20T09:32:45;100915.02;;;42.27;18.60
57791;BME280;43621;51.798;21.588;2023-05-20T09:36:52;100912.10;;;42.12;19.18
57791;BME280;43621;51.798;21.588;2023-05-20T09:40:53;100908.43;;;41.97;19.86
57791;BME280;43621;51.798;21.588;2023-05-20T09:44:56;100907.27;;;43.11;19.24
57791;BME280;43621;51.798;21.588;2023-05-20T09:48:58;100913.23;;;43.54;17.67
57791;BME280;43621;51.798;21.588;2023-05-20T09:53:03;100913.27;;;43.33;17.41
57791;BME280;43621;51.798;21.588;2023-05-20T09:57:06;100910.39;;;43.26;17.68
57791;BME280;43621;51.798;21.588;2023-05-20T10:01:07;100903.17;;;43.02;17.42
57791;BME280;43621;51.798;21.588;2023-05-20T10:05:21;100899.40;;;43.41;17.83
57791;BME280;43621;51.798;21.588;2023-05-20T10:22:30;100894.24;;;40.83;18.56
57791;BME280;43621;51.798;21.588;2023-05-20T10:26:39;100896.00;;;38.80;20.37
57791;BME280;43621;51.798;21.588;2023-05-20T10:30:48;100889.29;;;39.56;20.80
57791;BME280;43621;51.798;21.588;2023-05-20T10:34:50;100887.52;;;40.24;20.21
57791;BME280;43621;51.798;21.588;2023-05-20T10:38:58;100891.46;;;39.59;20.30
57791;BME280;43621;51.798;21.588;2023-05-20T10:43:14;100884.37;;;39.36;20.84
57791;BME280;43621;51.798;21.588;2023-05-20T10:47:16;100873.63;;;40.42;20.05
57791;BME280;43621;51.798;21.588;2023-05-20T10:51:19;100868.91;;;41.07;19.79
57791;BME280;43621;51.798;21.588;2023-05-20T10:55:21;100862.78;;;41.68;19.10
57791;BME280;43621;51.798;21.588;2023-05-20T10:59:23;100864.54;;;41.73;18.88
57791;BME280;43621;51.798;21.588;2023-05-20T11:03:24;100858.89;;;41.60;18.86
57791;BME280;43621;51.798;21.588;2023-05-20T11:07:26;100849.77;;;40.23;19.68
57791;BME280;43621;51.798;21.588;2023-05-20T11:11:29;100848.48;;;38.20;21.61
57791;BME280;43621;51.798;21.588;2023-05-20T11:15:31;100842.35;;;36.14;23.14
57791;BME280;43621;51.798;21.588;2023-05-20T11:19:36;100838.02;;;33.77;25.60
57791;BME280;43621;51.798;21.588;2023-05-20T11:23:37;100835.74;;;32.08;27.73
57791;BME280;43621;51.798;21.588;2023-05-20T11:27:39;100834.70;;;31.33;29.30
57791;BME280;43621;51.798;21.588;2023-05-20T11:31:40;100836.68;;;30.68;30.26
57791;BME280;43621;51.798;21.588;2023-05-20T11:35:50;100832.69;;;30.44;30.79
57791;BME280;43621;51.798;21.588;2023-05-20T11:40:05;100834.30;;;30.13;31.60
57791;BME280;43621;51.798;21.588;2023-05-20T11:44:11;100830.98;;;29.68;32.27
57791;BME280;43621;51.798;21.588;2023-05-20T11:48:13;100827.59;;;29.19;33.12
57791;BME280;43621;51.798;21.588;2023-05-20T11:52:16;100834.76;;;28.68;34.05
57791;BME280;43621;51.798;21.588;2023-05-20T11:56:19;100827.05;;;28.21;35.20
57791;BME280;43621;51.798;21.588;2023-05-20T12:00:22;100827.84;;;28.09;35.73
57791;BME280;43621;51.798;21.588;2023-05-20T12:04:23;100829.16;;;28.07;35.89
57791;BME280;43621;51.798;21.588;2023-05-20T12:08:24;100832.45;;;27.82;36.53
57791;BME280;43621;51.798;21.588;2023-05-20T12:12:26;100830.43;;;27.44;37.19
57791;BME280;43621;51.798;21.588;2023-05-20T12:16:29;100825.34;;;27.30;37.44
57791;BME280;43621;51.798;21.588;2023-05-20T12:20:31;100824.20;;;27.35;37.64
57791;BME280;43621;51.798;21.588;2023-05-20T12:24:34;100817.75;;;27.31;37.47
57791;BME280;43621;51.798;21.588;2023-05-20T12:28:35;100815.96;;;27.52;37.51
57791;BME280;43621;51.798;21.588;2023-05-20T12:32:36;100817.95;;;27.54;37.88
57791;BME280;43621;51.798;21.588;2023-05-20T12:36:38;100812.19;;;27.49;37.91
57791;BME280;43621;51.798;21.588;2023-05-20T12:40:39;100810.38;;;27.17;37.77
57791;BME280;43621;51.798;21.588;2023-05-20T12:44:40;100805.10;;;26.84;38.40
57791;BME280;43621;51.798;21.588;2023-05-20T12:48:41;100805.94;;;26.56;39.06
57791;BME280;43621;51.798;21.588;2023-05-20T12:52:42;100802.23;;;26.29;38.73
57791;BME280;43621;51.798;21.588;2023-05-20T12:56:43;100797.33;;;26.11;38.69
57791;BME280;43621;51.798;21.588;2023-05-20T13:00:47;100789.88;;;25.98;39.14
57791;BME280;43621;51.798;21.588;2023-05-20T13:04:48;100787.89;;;25.85;39.73
57791;BME280;43621;51.798;21.588;2023-05-20T13:08:49;100786.58;;;25.70;39.97
57791;BME280;43621;51.798;21.588;2023-05-20T13:12:50;100781.93;;;25.66;39.88
57791;BME280;43621;51.798;21.588;2023-05-20T13:16:51;100775.67;;;25.99;39.88
57791;BME280;43621;51.798;21.588;2023-05-20T13:20:56;100773.30;;;26.54;39.95
57791;BME280;43621;51.798;21.588;2023-05-20T13:24:57;100770.30;;;26.99;39.79
57791;BME280;43621;51.798;21.588;2023-05-20T13:28:58;100765.77;;;26.94;39.22
57791;BME280;43621;51.798;21.588;2023-05-20T13:33:02;100764.85;;;26.88;39.51
57791;BME280;43621;51.798;21.588;2023-05-20T13:37:04;100766.38;;;26.73;39.64
57791;BME280;43621;51.798;21.588;2023-05-20T13:41:05;100761.11;;;26.52;39.50
57791;BME280;43621;51.798;21.588;2023-05-20T13:45:07;100759.42;;;26.06;40.33
57791;BME280;43621;51.798;21.588;2023-05-20T13:49:08;100759.72;;;25.62;41.45
57791;BME280;43621;51.798;21.588;2023-05-20T13:53:09;100761.07;;;25.32;41.61
57791;BME280;43621;51.798;21.588;2023-05-20T13:57:13;100763.14;;;25.20;41.70
57791;BME280;43621;51.798;21.588;2023-05-20T14:01:15;100761.29;;;25.19;41.88
57791;BME280;43621;51.798;21.588;2023-05-20T14:05:16;100759.05;;;25.27;41.70
57791;BME280;43621;51.798;21.588;2023-05-20T14:09:18;100755.85;;;25.42;41.73
57791;BME280;43621;51.798;21.588;2023-05-20T14:13:23;100750.61;;;25.62;41.51
57791;BME280;43621;51.798;21.588;2023-05-20T14:17:24;100745.34;;;25.85;41.74
57791;BME280;43621;51.798;21.588;2023-05-20T14:21:26;100742.54;;;26.02;41.38
57791;BME280;43621;51.798;21.588;2023-05-20T14:25:27;100747.93;;;26.07;41.34
57791;BME280;43621;51.798;21.588;2023-05-20T14:29:28;100741.04;;;26.07;41.13
57791;BME280;43621;51.798;21.588;2023-05-20T14:33:29;100734.99;;;25.96;41.18
57791;BME280;43621;51.798;21.588;2023-05-20T14:37:30;100733.23;;;25.86;41.10
57791;BME280;43621;51.798;21.588;2023-05-20T14:41:31;100732.45;;;25.94;41.28
57791;BME280;43621;51.798;21.588;2023-05-20T14:45:33;100731.49;;;25.78;41.01
57791;BME280;43621;51.798;21.588;2023-05-20T14:49:34;100740.77;;;25.49;41.20
57791;BME280;43621;51.798;21.588;2023-05-20T14:53:37;100736.45;;;25.21;41.45
57791;BME280;43621;51.798;21.588;2023-05-20T14:57:39;100732.23;;;25.11;42.03
57791;BME280;43621;51.798;21.588;2023-05-20T15:01:40;100729.71;;;25.13;42.00
57791;BME280;43621;51.798;21.588;2023-05-20T15:05:41;100727.10;;;25.01;42.27
57791;BME280;43621;51.798;21.588;2023-05-20T15:09:42;100722.66;;;24.83;42.34
57791;BME280;43621;51.798;21.588;2023-05-20T15:13:43;100721.25;;;24.67;42.41
57791;BME280;43621;51.798;21.588;2023-05-20T15:17:46;100720.14;;;24.56;42.58
57791;BME280;43621;51.798;21.588;2023-05-20T15:21:47;100715.41;;;24.39;42.93
57791;BME280;43621;51.798;21.588;2023-05-20T15:25:51;100715.51;;;24.19;43.05
57791;BME280;43621;51.798;21.588;2023-05-20T15:29:52;100717.58;;;24.02;43.14
57791;BME280;43621;51.798;21.588;2023-05-20T15:33:53;100711.05;;;23.94;43.44
57791;BME280;43621;51.798;21.588;2023-05-20T15:37:55;100709.23;;;23.93;43.59
57791;BME280;43621;51.798;21.588;2023-05-20T15:41:56;100715.23;;;23.95;43.56
57791;BME280;43621;51.798;21.588;2023-05-20T15:46:00;100703.64;;;23.92;43.60
57791;BME280;43621;51.798;21.588;2023-05-20T15:50:01;100698.91;;;23.93;43.48
57791;BME280;43621;51.798;21.588;2023-05-20T15:54:05;100695.70;;;23.95;43.53
57791;BME280;43621;51.798;21.588;2023-05-20T15:58:06;100694.63;;;23.94;43.49
57791;BME280;43621;51.798;21.588;2023-05-20T16:02:07;100695.89;;;23.99;43.45
57791;BME280;43621;51.798;21.588;2023-05-20T16:06:08;100696.23;;;23.97;43.41
57791;BME280;43621;51.798;21.588;2023-05-20T16:10:11;100693.77;;;23.96;43.52
57791;BME280;43621;51.798;21.588;2023-05-20T16:14:12;100691.34;;;23.91;43.58
57791;BME280;43621;51.798;21.588;2023-05-20T16:18:13;100691.48;;;23.86;43.68
57791;BME280;43621;51.798;21.588;2023-05-20T16:22:16;100693.67;;;23.82;43.54
57791;BME280;43621;51.798;21.588;2023-05-20T16:26:17;100697.54;;;23.81;43.36
57791;BME280;43621;51.798;21.588;2023-05-20T16:30:19;100701.45;;;23.81;43.55
57791;BME280;43621;51.798;21.588;2023-05-20T16:34:20;100705.45;;;23.79;43.58
57791;BME280;43621;51.798;21.588;2023-05-20T16:38:21;100702.62;;;23.73;43.49
57791;BME280;43621;51.798;21.588;2023-05-20T16:42:22;100705.64;;;23.61;43.56
57791;BME280;43621;51.798;21.588;2023-05-20T16:46:24;100713.33;;;23.47;43.55
57791;BME280;43621;51.798;21.588;2023-05-20T16:50:25;100715.76;;;23.36;43.73
57791;BME280;43621;51.798;21.588;2023-05-20T16:54:26;100715.67;;;23.31;43.94
57791;BME280;43621;51.798;21.588;2023-05-20T16:58:27;100716.29;;;23.26;44.02
57791;BME280;43621;51.798;21.588;2023-05-20T17:02:28;100723.02;;;23.19;44.01
57791;BME280;43621;51.798;21.588;2023-05-20T17:06:30;100727.95;;;23.08;44.33
57791;BME280;43621;51.798;21.588;2023-05-20T17:10:33;100728.34;;;22.94;44.39
57791;BME280;43621;51.798;21.588;2023-05-20T17:14:35;100729.72;;;22.86;44.40
57791;BME280;43621;51.798;21.588;2023-05-20T17:18:36;100733.01;;;22.79;44.47
57791;BME280;43621;51.798;21.588;2023-05-20T17:22:38;100731.02;;;22.73;44.74
57791;BME280;43621;51.798;21.588;2023-05-20T17:26:39;100730.56;;;22.60;44.86
57791;BME280;43621;51.798;21.588;2023-05-20T17:30:41;100729.90;;;22.48;44.85
57791;BME280;43621;51.798;21.588;2023-05-20T17:34:42;100724.88;;;22.35;44.95
57791;BME280;43621;51.798;21.588;2023-05-20T17:38:43;100725.36;;;22.24;44.97
57791;BME280;43621;51.798;21.588;2023-05-20T17:42:44;100727.39;;;22.13;45.00
57791;BME280;43621;51.798;21.588;2023-05-20T17:46:45;100726.49;;;21.98;45.03
57791;BME280;43621;51.798;21.588;2023-05-20T17:50:46;100728.15;;;21.83;45.06
57791;BME280;43621;51.798;21.588;2023-05-20T17:54:47;100731.52;;;21.66;45.18
57791;BME280;43621;51.798;21.588;2023-05-20T17:58:49;100729.21;;;21.48;45.40
57791;BME280;43621;51.798;21.588;2023-05-20T18:02:50;100731.59;;;21.32;45.58
57791;BME280;43621;51.798;21.588;2023-05-20T18:06:51;100731.52;;;21.18;45.73
57791;BME280;43621;51.798;21.588;2023-05-20T18:10:52;100733.65;;;21.03;45.85
57791;BME280;43621;51.798;21.588;2023-05-20T18:14:53;100737.34;;;20.84;46.04
57791;BME280;43621;51.798;21.588;2023-05-20T18:18:55;100740.83;;;20.67;46.25
57791;BME280;43621;51.798;21.588;2023-05-20T18:22:57;100743.08;;;20.50;46.37
57791;BME280;43621;51.798;21.588;2023-05-20T18:26:58;100739.30;;;20.35;46.55
57791;BME280;43621;51.798;21.588;2023-05-20T18:30:59;100738.56;;;20.20;46.71
57791;BME280;43621;51.798;21.588;2023-05-20T18:35:01;100743.63;;;20.04;46.90
57791;BME280;43621;51.798;21.588;2023-05-20T18:39:02;100744.20;;;19.89;47.10
57791;BME280;43621;51.798;21.588;2023-05-20T18:43:03;100743.85;;;19.74;47.29
57791;BME280;43621;51.798;21.588;2023-05-20T18:47:05;100746.79;;;19.62;47.51
57791;BME280;43621;51.798;21.588;2023-05-20T18:51:06;100748.69;;;19.50;47.68
57791;BME280;43621;51.798;21.588;2023-05-20T18:55:08;100746.96;;;19.38;47.80
57791;BME280;43621;51.798;21.588;2023-05-20T18:59:09;100747.64;;;19.28;48.00
57791;BME280;43621;51.798;21.588;2023-05-20T19:03:11;100748.06;;;19.17;48.05
57791;BME280;43621;51.798;21.588;2023-05-20T19:07:12;100743.80;;;19.05;48.16
57791;BME280;43621;51.798;21.588;2023-05-20T19:11:13;100743.64;;;18.94;48.24
57791;BME280;43621;51.798;21.588;2023-05-20T19:15:15;100747.42;;;18.84;48.39
57791;BME280;43621;51.798;21.588;2023-05-20T19:19:19;100750.78;;;18.76;48.42
57791;BME280;43621;51.798;21.588;2023-05-20T19:23:20;100751.09;;;18.69;48.56
57791;BME280;43621;51.798;21.588;2023-05-20T19:27:21;100748.06;;;18.62;48.58
57791;BME280;43621;51.798;21.588;2023-05-20T19:31:22;100741.95;;;18.53;48.78
57791;BME280;43621;51.798;21.588;2023-05-20T19:35:23;100744.81;;;18.45;48.84
57791;BME280;43621;51.798;21.588;2023-05-20T19:39:25;100745.51;;;18.37;48.95
57791;BME280;43621;51.798;21.588;2023-05-20T19:43:26;100741.92;;;18.30;48.91
57791;BME280;43621;51.798;21.588;2023-05-20T19:47:30;100741.16;;;18.22;48.92
57791;BME280;43621;51.798;21.588;2023-05-20T19:51:31;100742.71;;;18.14;49.14
57791;BME280;43621;51.798;21.588;2023-05-20T19:55:33;100737.20;;;18.07;49.25
57791;BME280;43621;51.798;21.588;2023-05-20T19:59:35;100734.45;;;18.00;49.41
57791;BME280;43621;51.798;21.588;2023-05-20T20:03:38;100737.01;;;17.93;49.51
57791;BME280;43621;51.798;21.588;2023-05-20T20:07:40;100734.80;;;17.87;49.51
57791;BME280;43621;51.798;21.588;2023-05-20T20:11:41;100737.07;;;17.83;49.54
57791;BME280;43621;51.798;21.588;2023-05-20T20:15:43;100743.30;;;17.78;49.67
57791;BME280;43621;51.798;21.588;2023-05-20T20:19:44;100749.16;;;17.72;49.75
57791;BME280;43621;51.798;21.588;2023-05-20T20:23:48;100751.19;;;17.67;49.75
57791;BME280;43621;51.798;21.588;2023-05-20T20:27:49;100750.57;;;17.61;49.76
57791;BME280;43621;51.798;21.588;2023-05-20T20:31:50;100748.92;;;17.53;49.80
57791;BME280;43621;51.798;21.588;2023-05-20T20:35:52;100751.61;;;17.46;49.90
57791;BME280;43621;51.798;21.588;2023-05-20T20:39:56;100757.86;;;17.41;50.03
57791;BME280;43621;51.798;21.588;2023-05-20T20:43:58;100752.99;;;17.34;50.26
57791;BME280;43621;51.798;21.588;2023-05-20T20:48:00;100748.10;;;17.27;50.37
57791;BME280;43621;51.798;21.588;2023-05-20T20:52:01;100742.63;;;17.20;50.41
57791;BME280;43621;51.798;21.588;2023-05-20T20:56:03;100744.25;;;17.15;50.58
57791;BME280;43621;51.798;21.588;2023-05-20T21:00:05;100742.83;;;17.09;50.69